This London Heathrow Airport weather forecast is generated by the Met Office Weather Widget

AirNav RadarBox - Metar Weather
  London Heathrow Metar Weather
 

METAR = EGLL 252120Z 06006KT 8000 -RA BKN013 08/07 Q1016

STATION........ EGLL
OBSERVED....... Tue Nov 25, 21:20 UTC
NOW............ Tue Nov 25, 21:43 UTC
AGE............ 23 min ago
WIND........... ENE at 7 mph
VISIBILITY..... 13 miles
CONDITIONS..... light rain
CLOUDS......... mostly cloudy
TEMP........... 46°F (8°C)
WIND CHILL..... 42°F (6°C)
DEWPT.......... 45°F (7°C)
HUMIDITY....... 93%
BAROMETER...... 1016 hPa (30 in Hg)

Tue Nov 25 2014, sunrise time : 07:41
Tue Nov 25 2014, sunset time : 15:56